sensor_id;sensor_type;location;lat;lon;timestamp;pressure;altitude;pressure_sealevel;temperature;humidity
57232;BME280;43488;46.934;8.276;2022-08-03T00:01:10;96551.34;;;21.03;74.77
57232;BME280;43488;46.934;8.276;2022-08-03T00:03:37;96544.41;;;20.97;74.99
57232;BME280;43488;46.934;8.276;2022-08-03T00:06:05;96549.75;;;20.97;74.83
57232;BME280;43488;46.934;8.276;2022-08-03T00:08:33;96553.22;;;20.97;74.87
57232;BME280;43488;46.934;8.276;2022-08-03T00:11:00;96544.13;;;20.98;74.66
57232;BME280;43488;46.934;8.276;2022-08-03T00:13:28;96547.34;;;20.95;74.27
57232;BME280;43488;46.934;8.276;2022-08-03T00:15:55;96549.47;;;20.93;74.40
57232;BME280;43488;46.934;8.276;2022-08-03T00:18:22;96546.00;;;20.93;74.21
57232;BME280;43488;46.934;8.276;2022-08-03T00:20:49;96546.56;;;20.90;74.60
57232;BME280;43488;46.934;8.276;2022-08-03T00:23:16;96535.06;;;20.84;74.98
57232;BME280;43488;46.934;8.276;2022-08-03T00:25:44;96545.28;;;20.67;75.34
57232;BME280;43488;46.934;8.276;2022-08-03T00:28:11;96538.31;;;20.66;75.43
57232;BME280;43488;46.934;8.276;2022-08-03T00:30:38;96532.47;;;20.59;75.97
57232;BME280;43488;46.934;8.276;2022-08-03T00:33:05;96536.19;;;20.53;76.26
57232;BME280;43488;46.934;8.276;2022-08-03T00:35:33;96528.97;;;20.58;76.28
57232;BME280;43488;46.934;8.276;2022-08-03T00:38:00;96531.09;;;20.61;75.85
57232;BME280;43488;46.934;8.276;2022-08-03T00:40:28;96527.09;;;20.64;76.24
57232;BME280;43488;46.934;8.276;2022-08-03T00:43:02;96530.84;;;20.63;76.68
57232;BME280;43488;46.934;8.276;2022-08-03T00:45:37;96530.84;;;20.68;76.88
57232;BME280;43488;46.934;8.276;2022-08-03T00:48:07;96530.28;;;20.66;75.97
57232;BME280;43488;46.934;8.276;2022-08-03T00:50:39;96528.16;;;20.68;75.56
57232;BME280;43488;46.934;8.276;2022-08-03T00:53:10;96532.44;;;20.69;74.81
57232;BME280;43488;46.934;8.276;2022-08-03T00:55:41;96534.84;;;20.65;74.62
57232;BME280;43488;46.934;8.276;2022-08-03T00:58:10;96536.44;;;20.66;74.65
57232;BME280;43488;46.934;8.276;2022-08-03T01:00:39;96537.25;;;20.67;75.10
57232;BME280;43488;46.934;8.276;2022-08-03T01:03:09;96523.34;;;20.70;75.08
57232;BME280;43488;46.934;8.276;2022-08-03T01:05:55;96538.88;;;20.58;75.91
57232;BME280;43488;46.934;8.276;2022-08-03T01:12:02;96535.13;;;20.43;77.18
57232;BME280;43488;46.934;8.276;2022-08-03T01:14:54;96532.47;;;20.43;76.90
57232;BME280;43488;46.934;8.276;2022-08-03T01:17:27;96536.19;;;20.42;77.41
57232;BME280;43488;46.934;8.276;2022-08-03T01:20:14;96536.47;;;20.51;78.00
57232;BME280;43488;46.934;8.276;2022-08-03T01:31:07;96525.75;;;20.36;78.35
57232;BME280;43488;46.934;8.276;2022-08-03T01:33:43;96520.69;;;20.39;78.28
57232;BME280;43488;46.934;8.276;2022-08-03T01:36:19;96531.38;;;20.39;77.49
57232;BME280;43488;46.934;8.276;2022-08-03T01:39:01;96520.69;;;20.39;77.16
57232;BME280;43488;46.934;8.276;2022-08-03T01:41:36;96525.75;;;20.36;77.07
57232;BME280;43488;46.934;8.276;2022-08-03T01:44:08;96524.94;;;20.35;76.92
57232;BME280;43488;46.934;8.276;2022-08-03T01:46:38;96524.69;;;20.32;77.50
57232;BME280;43488;46.934;8.276;2022-08-03T01:49:09;96526.84;;;20.25;78.19
57232;BME280;43488;46.934;8.276;2022-08-03T01:51:40;96524.44;;;20.23;78.14
57232;BME280;43488;46.934;8.276;2022-08-03T01:54:12;96525.78;;;20.15;78.59
57232;BME280;43488;46.934;8.276;2022-08-03T01:56:42;96522.84;;;20.12;79.23
57232;BME280;43488;46.934;8.276;2022-08-03T01:59:10;96529.25;;;20.06;79.59
57232;BME280;43488;46.934;8.276;2022-08-03T02:01:40;96517.75;;;20.10;78.90
57232;BME280;43488;46.934;8.276;2022-08-03T02:04:10;96515.34;;;20.04;78.93
57232;BME280;43488;46.934;8.276;2022-08-03T02:06:39;96524.94;;;20.10;78.78
57232;BME280;43488;46.934;8.276;2022-08-03T02:09:11;96518.28;;;20.07;78.21
57232;BME280;43488;46.934;8.276;2022-08-03T02:11:42;96511.09;;;20.03;78.41
57232;BME280;43488;46.934;8.276;2022-08-03T02:14:13;96512.94;;;20.02;78.97
57232;BME280;43488;46.934;8.276;2022-08-03T02:16:43;96520.44;;;20.05;79.06
57232;BME280;43488;46.934;8.276;2022-08-03T02:19:12;96527.63;;;19.89;79.65
57232;BME280;43488;46.934;8.276;2022-08-03T02:21:41;96528.66;;;19.83;80.03
57232;BME280;43488;46.934;8.276;2022-08-03T02:24:10;96524.16;;;19.89;79.99
57232;BME280;43488;46.934;8.276;2022-08-03T02:26:39;96530.31;;;19.95;79.99
57232;BME280;43488;46.934;8.276;2022-08-03T02:29:19;96527.34;;;19.91;79.28
57232;BME280;43488;46.934;8.276;2022-08-03T02:31:48;96525.47;;;19.92;79.42
57232;BME280;43488;46.934;8.276;2022-08-03T02:34:18;96528.16;;;19.92;79.61
57232;BME280;43488;46.934;8.276;2022-08-03T02:36:49;96529.50;;;19.94;79.70
57232;BME280;43488;46.934;8.276;2022-08-03T02:39:21;96517.75;;;20.00;79.28
57232;BME280;43488;46.934;8.276;2022-08-03T02:41:56;96526.56;;;19.96;79.62
57232;BME280;43488;46.934;8.276;2022-08-03T02:44:30;96517.75;;;19.90;79.20
57232;BME280;43488;46.934;8.276;2022-08-03T02:47:04;96525.22;;;19.88;78.81
57232;BME280;43488;46.934;8.276;2022-08-03T02:49:33;96527.63;;;19.84;79.01
57232;BME280;43488;46.934;8.276;2022-08-03T02:52:01;96530.56;;;19.88;79.19
57232;BME280;43488;46.934;8.276;2022-08-03T02:54:31;96526.56;;;19.85;79.39
57232;BME280;43488;46.934;8.276;2022-08-03T02:57:00;96531.63;;;19.82;79.63
57232;BME280;43488;46.934;8.276;2022-08-03T02:59:29;96520.41;;;19.80;79.72
57232;BME280;43488;46.934;8.276;2022-08-03T03:01:59;96526.78;;;19.74;80.09
57232;BME280;43488;46.934;8.276;2022-08-03T03:04:29;96524.41;;;19.77;80.07
57232;BME280;43488;46.934;8.276;2022-08-03T03:06:57;96517.44;;;19.71;80.41
57232;BME280;43488;46.934;8.276;2022-08-03T03:09:25;96523.06;;;19.70;80.72
57232;BME280;43488;46.934;8.276;2022-08-03T03:11:53;96510.78;;;19.69;80.91
57232;BME280;43488;46.934;8.276;2022-08-03T03:14:21;96520.13;;;19.66;81.15
57232;BME280;43488;46.934;8.276;2022-08-03T03:16:49;96518.78;;;19.69;81.26
57232;BME280;43488;46.934;8.276;2022-08-03T03:19:18;96512.88;;;19.62;81.05
57232;BME280;43488;46.934;8.276;2022-08-03T03:21:46;96511.56;;;19.59;80.88
57232;BME280;43488;46.934;8.276;2022-08-03T03:24:15;96513.69;;;19.57;80.65
57232;BME280;43488;46.934;8.276;2022-08-03T03:26:43;96511.56;;;19.59;80.21
57232;BME280;43488;46.934;8.276;2022-08-03T03:29:10;96514.75;;;19.56;80.72
57232;BME280;43488;46.934;8.276;2022-08-03T03:31:38;96510.44;;;19.55;81.02
57232;BME280;43488;46.934;8.276;2022-08-03T03:34:06;96510.72;;;19.53;80.87
57232;BME280;43488;46.934;8.276;2022-08-03T03:36:34;96517.16;;;19.57;80.71
57232;BME280;43488;46.934;8.276;2022-08-03T03:39:05;96514.22;;;19.59;80.68
57232;BME280;43488;46.934;8.276;2022-08-03T03:41:32;96504.56;;;19.48;81.12
57232;BME280;43488;46.934;8.276;2022-08-03T03:44:00;96516.28;;;19.42;81.51
57232;BME280;43488;46.934;8.276;2022-08-03T03:46:28;96522.16;;;19.39;81.63
57232;BME280;43488;46.934;8.276;2022-08-03T03:48:56;96524.31;;;19.42;81.69
57232;BME280;43488;46.934;8.276;2022-08-03T03:51:24;96513.09;;;19.40;81.90
57232;BME280;43488;46.934;8.276;2022-08-03T03:54:00;96519.75;;;19.42;82.28
57232;BME280;43488;46.934;8.276;2022-08-03T03:56:28;96522.44;;;19.47;82.33
57232;BME280;43488;46.934;8.276;2022-08-03T03:58:55;96526.97;;;19.42;83.13
57232;BME280;43488;46.934;8.276;2022-08-03T04:01:25;96530.97;;;19.44;83.33
57232;BME280;43488;46.934;8.276;2022-08-03T04:03:52;96529.63;;;19.42;82.83
57232;BME280;43488;46.934;8.276;2022-08-03T04:06:20;96529.38;;;19.43;82.64
57232;BME280;43488;46.934;8.276;2022-08-03T04:09:07;96531.50;;;19.46;82.71
57232;BME280;43488;46.934;8.276;2022-08-03T04:11:57;96526.47;;;19.50;82.60
57232;BME280;43488;46.934;8.276;2022-08-03T04:14:34;96530.97;;;19.44;82.76
57232;BME280;43488;46.934;8.276;2022-08-03T04:17:07;96525.63;;;19.44;82.53
57232;BME280;43488;46.934;8.276;2022-08-03T04:19:41;96530.44;;;19.42;82.53
57232;BME280;43488;46.934;8.276;2022-08-03T04:22:12;96538.19;;;19.44;82.65
57232;BME280;43488;46.934;8.276;2022-08-03T04:24:49;96531.78;;;19.40;82.82
57232;BME280;43488;46.934;8.276;2022-08-03T04:27:26;96525.59;;;19.34;83.05
57232;BME280;43488;46.934;8.276;2022-08-03T04:29:56;96531.22;;;19.38;83.20
57232;BME280;43488;46.934;8.276;2022-08-03T04:32:26;96535.25;;;19.40;83.38
57232;BME280;43488;46.934;8.276;2022-08-03T04:34:55;96536.03;;;19.41;82.52
57232;BME280;43488;46.934;8.276;2022-08-03T04:39:56;96543.53;;;19.39;82.09
57232;BME280;43488;46.934;8.276;2022-08-03T04:42:27;96537.88;;;19.35;81.93
57232;BME280;43488;46.934;8.276;2022-08-03T04:44:56;96527.75;;;19.32;82.40
57232;BME280;43488;46.934;8.276;2022-08-03T04:47:24;96533.06;;;19.37;82.14
57232;BME280;43488;46.934;8.276;2022-08-03T04:49:51;96532.81;;;19.33;82.39
57232;BME280;43488;46.934;8.276;2022-08-03T04:52:19;96535.47;;;19.33;82.46
57232;BME280;43488;46.934;8.276;2022-08-03T04:54:46;96537.91;;;19.40;82.31
57232;BME280;43488;46.934;8.276;2022-08-03T04:57:15;96543.25;;;19.45;82.26
57232;BME280;43488;46.934;8.276;2022-08-03T04:59:42;96547.00;;;19.44;82.31
57232;BME280;43488;46.934;8.276;2022-08-03T05:02:09;96534.16;;;19.36;82.87
57232;BME280;43488;46.934;8.276;2022-08-03T05:04:37;96545.09;;;19.29;83.50
57232;BME280;43488;46.934;8.276;2022-08-03T05:07:07;96544.03;;;19.30;83.74
57232;BME280;43488;46.934;8.276;2022-08-03T05:09:36;96542.41;;;19.35;83.54
57232;BME280;43488;46.934;8.276;2022-08-03T05:12:08;96543.78;;;19.42;83.33
57232;BME280;43488;46.934;8.276;2022-08-03T05:14:37;96548.31;;;19.47;83.57
57232;BME280;43488;46.934;8.276;2022-08-03T05:17:05;96547.81;;;19.55;84.16
57232;BME280;43488;46.934;8.276;2022-08-03T05:19:32;96537.72;;;19.62;83.99
57232;BME280;43488;46.934;8.276;2022-08-03T05:21:59;96543.34;;;19.66;84.12
57232;BME280;43488;46.934;8.276;2022-08-03T05:24:27;96542.03;;;19.68;84.26
57232;BME280;43488;46.934;8.276;2022-08-03T05:26:54;96552.69;;;19.73;85.07
57232;BME280;43488;46.934;8.276;2022-08-03T05:29:21;96551.09;;;19.72;85.22
57232;BME280;43488;46.934;8.276;2022-08-03T05:31:49;96553.25;;;19.75;84.43
57232;BME280;43488;46.934;8.276;2022-08-03T05:34:16;96555.41;;;19.78;83.62
57232;BME280;43488;46.934;8.276;2022-08-03T05:36:43;96559.41;;;19.86;82.54
57232;BME280;43488;46.934;8.276;2022-08-03T05:39:10;96547.66;;;19.92;82.38
57232;BME280;43488;46.934;8.276;2022-08-03T05:41:38;96551.16;;;19.98;81.56
57232;BME280;43488;46.934;8.276;2022-08-03T05:44:05;96552.50;;;20.05;80.97
57232;BME280;43488;46.934;8.276;2022-08-03T05:46:32;96555.44;;;20.14;81.58
57232;BME280;43488;46.934;8.276;2022-08-03T05:49:01;96554.63;;;20.29;82.78
57232;BME280;43488;46.934;8.276;2022-08-03T05:51:28;96555.44;;;20.39;82.83
57232;BME280;43488;46.934;8.276;2022-08-03T05:53:55;96549.56;;;20.48;83.75
57232;BME280;43488;46.934;8.276;2022-08-03T05:56:24;96551.41;;;20.57;83.71
57232;BME280;43488;46.934;8.276;2022-08-03T05:58:52;96551.69;;;20.66;83.45
57232;BME280;43488;46.934;8.276;2022-08-03T06:01:20;96552.72;;;20.75;82.31
57232;BME280;43488;46.934;8.276;2022-08-03T06:03:48;96559.16;;;20.74;80.81
57232;BME280;43488;46.934;8.276;2022-08-03T06:06:16;96548.47;;;20.69;81.05
57232;BME280;43488;46.934;8.276;2022-08-03T06:08:45;96559.72;;;20.76;81.69
57232;BME280;43488;46.934;8.276;2022-08-03T06:11:12;96554.34;;;20.81;81.41
57232;BME280;43488;46.934;8.276;2022-08-03T06:13:40;96550.31;;;20.94;80.36
57232;BME280;43488;46.934;8.276;2022-08-03T06:16:09;96550.78;;;21.06;80.05
57232;BME280;43488;46.934;8.276;2022-08-03T06:18:37;96550.50;;;21.13;80.00
57232;BME280;43488;46.934;8.276;2022-08-03T06:21:07;96552.34;;;21.22;79.87
57232;BME280;43488;46.934;8.276;2022-08-03T06:23:34;96555.53;;;21.29;80.13
57232;BME280;43488;46.934;8.276;2022-08-03T06:26:02;96553.09;;;21.38;80.28
57232;BME280;43488;46.934;8.276;2022-08-03T06:28:29;96545.84;;;21.44;80.58
57232;BME280;43488;46.934;8.276;2022-08-03T06:30:56;96550.94;;;21.45;78.47
57232;BME280;43488;46.934;8.276;2022-08-03T06:33:23;96552.25;;;21.48;78.03
57232;BME280;43488;46.934;8.276;2022-08-03T06:35:53;96551.41;;;21.57;78.18
57232;BME280;43488;46.934;8.276;2022-08-03T06:38:20;96552.47;;;21.62;76.69
57232;BME280;43488;46.934;8.276;2022-08-03T06:40:47;96551.38;;;21.63;75.96
57232;BME280;43488;46.934;8.276;2022-08-03T06:43:15;96553.50;;;21.66;76.95
57232;BME280;43488;46.934;8.276;2022-08-03T06:45:42;96559.91;;;21.70;76.89
57232;BME280;43488;46.934;8.276;2022-08-03T06:48:11;96554.78;;;21.78;76.62
57232;BME280;43488;46.934;8.276;2022-08-03T06:50:41;96550.75;;;21.81;76.99
57232;BME280;43488;46.934;8.276;2022-08-03T06:53:08;96554.19;;;21.86;75.60
57232;BME280;43488;46.934;8.276;2022-08-03T06:55:37;96553.94;;;21.83;77.21
57232;BME280;43488;46.934;8.276;2022-08-03T06:58:05;96550.38;;;21.93;75.62
57232;BME280;43488;46.934;8.276;2022-08-03T07:00:32;96555.47;;;21.94;76.08
57232;BME280;43488;46.934;8.276;2022-08-03T07:02:59;96559.72;;;22.00;74.99
57232;BME280;43488;46.934;8.276;2022-08-03T07:05:27;96557.03;;;22.00;73.93
57232;BME280;43488;46.934;8.276;2022-08-03T07:07:56;96550.31;;;22.03;73.71
57232;BME280;43488;46.934;8.276;2022-08-03T07:10:25;96562.63;;;22.09;73.40
57232;BME280;43488;46.934;8.276;2022-08-03T07:12:53;96568.53;;;22.06;73.89
57232;BME280;43488;46.934;8.276;2022-08-03T07:15:21;96563.97;;;22.11;73.24
57232;BME280;43488;46.934;8.276;2022-08-03T07:17:49;96552.31;;;22.26;73.50
57232;BME280;43488;46.934;8.276;2022-08-03T07:20:17;96555.78;;;22.32;73.63
57232;BME280;43488;46.934;8.276;2022-08-03T07:22:45;96556.53;;;22.37;74.83
57232;BME280;43488;46.934;8.276;2022-08-03T07:25:12;96556.19;;;22.44;73.24
57232;BME280;43488;46.934;8.276;2022-08-03T07:27:43;96554.09;;;22.41;73.78
57232;BME280;43488;46.934;8.276;2022-08-03T07:30:11;96553.16;;;22.56;73.98
57232;BME280;43488;46.934;8.276;2022-08-03T07:32:39;96556.09;;;22.54;74.28
57232;BME280;43488;46.934;8.276;2022-08-03T07:35:07;96550.75;;;22.54;73.83
57232;BME280;43488;46.934;8.276;2022-08-03T07:37:34;96549.63;;;22.60;74.09
57232;BME280;43488;46.934;8.276;2022-08-03T07:40:04;96557.09;;;22.63;73.94
57232;BME280;43488;46.934;8.276;2022-08-03T07:42:32;96560.19;;;22.76;73.75
57232;BME280;43488;46.934;8.276;2022-08-03T07:44:59;96558.59;;;22.75;73.08
57232;BME280;43488;46.934;8.276;2022-08-03T07:47:29;96561.75;;;22.82;74.22
57232;BME280;43488;46.934;8.276;2022-08-03T07:49:57;96559.56;;;22.89;74.95
57232;BME280;43488;46.934;8.276;2022-08-03T07:52:24;96561.38;;;22.93;75.00
57232;BME280;43488;46.934;8.276;2022-08-03T07:55:10;96561.56;;;23.02;75.03
57232;BME280;43488;46.934;8.276;2022-08-03T07:57:38;96562.91;;;23.05;75.00
57232;BME280;43488;46.934;8.276;2022-08-03T08:00:12;96562.81;;;23.10;75.81
57232;BME280;43488;46.934;8.276;2022-08-03T08:02:40;96560.91;;;23.15;75.30
57232;BME280;43488;46.934;8.276;2022-08-03T08:05:08;96557.84;;;23.22;75.41
57232;BME280;43488;46.934;8.276;2022-08-03T08:07:39;96558.81;;;23.31;75.88
57232;BME280;43488;46.934;8.276;2022-08-03T08:10:08;96563.38;;;23.31;74.46
57232;BME280;43488;46.934;8.276;2022-08-03T08:12:38;96559.84;;;23.35;74.87
57232;BME280;43488;46.934;8.276;2022-08-03T08:15:07;96557.03;;;23.45;75.60
57232;BME280;43488;46.934;8.276;2022-08-03T08:17:51;96557.25;;;23.49;74.33
57232;BME280;43488;46.934;8.276;2022-08-03T08:20:23;96556.91;;;23.55;74.03
57232;BME280;43488;46.934;8.276;2022-08-03T08:22:50;96564.94;;;23.61;73.70
57232;BME280;43488;46.934;8.276;2022-08-03T08:25:18;96559.28;;;23.62;72.71
57232;BME280;43488;46.934;8.276;2022-08-03T08:27:48;96562.41;;;23.69;72.08
57232;BME280;43488;46.934;8.276;2022-08-03T08:30:18;96566.06;;;23.78;73.54
57232;BME280;43488;46.934;8.276;2022-08-03T08:32:47;96564.31;;;23.88;71.72
57232;BME280;43488;46.934;8.276;2022-08-03T08:35:17;96560.44;;;23.94;71.22
57232;BME280;43488;46.934;8.276;2022-08-03T08:37:45;96562.47;;;24.02;72.49
57232;BME280;43488;46.934;8.276;2022-08-03T08:40:13;96560.00;;;24.05;70.32
57232;BME280;43488;46.934;8.276;2022-08-03T08:42:42;96552.09;;;24.14;71.88
57232;BME280;43488;46.934;8.276;2022-08-03T08:45:10;96550.91;;;24.20;71.48
57232;BME280;43488;46.934;8.276;2022-08-03T08:47:40;96548.34;;;24.29;72.25
57232;BME280;43488;46.934;8.276;2022-08-03T08:50:11;96556.56;;;24.37;71.59
57232;BME280;43488;46.934;8.276;2022-08-03T08:52:40;96551.69;;;24.39;68.14
57232;BME280;43488;46.934;8.276;2022-08-03T08:55:12;96558.09;;;24.44;67.85
57232;BME280;43488;46.934;8.276;2022-08-03T08:57:47;96543.66;;;24.53;67.47
57232;BME280;43488;46.934;8.276;2022-08-03T09:00:16;96554.63;;;24.57;64.65
57232;BME280;43488;46.934;8.276;2022-08-03T09:02:44;96547.28;;;24.62;64.32
57232;BME280;43488;46.934;8.276;2022-08-03T09:05:15;96551.38;;;24.74;67.12
57232;BME280;43488;46.934;8.276;2022-08-03T09:07:44;96551.00;;;24.80;65.75
57232;BME280;43488;46.934;8.276;2022-08-03T09:10:15;96553.00;;;24.88;64.53
57232;BME280;43488;46.934;8.276;2022-08-03T09:12:51;96551.72;;;25.00;66.51
57232;BME280;43488;46.934;8.276;2022-08-03T09:15:31;96549.47;;;25.07;64.96
57232;BME280;43488;46.934;8.276;2022-08-03T09:18:01;96544.25;;;25.10;65.06
57232;BME280;43488;46.934;8.276;2022-08-03T09:20:32;96545.97;;;25.20;61.97
57232;BME280;43488;46.934;8.276;2022-08-03T09:23:06;96541.97;;;25.31;63.96
57232;BME280;43488;46.934;8.276;2022-08-03T09:25:41;96541.97;;;25.31;62.07
57232;BME280;43488;46.934;8.276;2022-08-03T09:28:16;96548.94;;;25.32;60.40
57232;BME280;43488;46.934;8.276;2022-08-03T09:30:57;96547.13;;;25.41;62.87
57232;BME280;43488;46.934;8.276;2022-08-03T09:33:26;96541.34;;;25.48;62.96
57232;BME280;43488;46.934;8.276;2022-08-03T09:35:53;96544.63;;;25.59;63.48
57232;BME280;43488;46.934;8.276;2022-08-03T09:38:24;96550.88;;;25.68;64.42
57232;BME280;43488;46.934;8.276;2022-08-03T09:40:55;96550.03;;;25.72;62.77
57232;BME280;43488;46.934;8.276;2022-08-03T09:43:23;96542.13;;;25.76;64.12
57232;BME280;43488;46.934;8.276;2022-08-03T09:46:03;96543.91;;;25.80;64.14
57232;BME280;43488;46.934;8.276;2022-08-03T09:48:31;96544.91;;;25.85;61.75
57232;BME280;43488;46.934;8.276;2022-08-03T09:51:04;96548.28;;;25.90;58.51
57232;BME280;43488;46.934;8.276;2022-08-03T09:53:42;96546.31;;;26.04;60.12
57232;BME280;43488;46.934;8.276;2022-08-03T09:56:09;96546.69;;;26.12;60.69
57232;BME280;43488;46.934;8.276;2022-08-03T09:58:46;96538.81;;;26.15;59.45
57232;BME280;43488;46.934;8.276;2022-08-03T10:01:14;96541.00;;;26.13;58.50
57232;BME280;43488;46.934;8.276;2022-08-03T10:03:42;96532.38;;;26.25;60.30
57232;BME280;43488;46.934;8.276;2022-08-03T10:06:23;96533.34;;;26.29;58.62
57232;BME280;43488;46.934;8.276;2022-08-03T10:09:13;96531.53;;;26.38;58.46
57232;BME280;43488;46.934;8.276;2022-08-03T10:11:42;96537.47;;;26.49;56.58
57232;BME280;43488;46.934;8.276;2022-08-03T10:14:11;96524.66;;;26.54;53.35
57232;BME280;43488;46.934;8.276;2022-08-03T10:16:46;96530.56;;;26.65;55.28
57232;BME280;43488;46.934;8.276;2022-08-03T10:19:15;96530.00;;;26.77;54.48
57232;BME280;43488;46.934;8.276;2022-08-03T10:22:06;96517.47;;;26.81;55.42
57232;BME280;43488;46.934;8.276;2022-08-03T10:24:39;96521.78;;;26.82;53.64
57232;BME280;43488;46.934;8.276;2022-08-03T10:27:12;96524.66;;;26.94;54.68
57232;BME280;43488;46.934;8.276;2022-08-03T10:29:44;96513.44;;;27.01;54.89
57232;BME280;43488;46.934;8.276;2022-08-03T10:32:39;96515.81;;;27.02;52.89
57232;BME280;43488;46.934;8.276;2022-08-03T10:35:14;96513.97;;;27.11;53.50
57232;BME280;43488;46.934;8.276;2022-08-03T10:37:49;96508.09;;;27.09;53.00
57232;BME280;43488;46.934;8.276;2022-08-03T10:40:21;96503.19;;;27.20;53.89
57232;BME280;43488;46.934;8.276;2022-08-03T10:42:52;96503.22;;;27.37;52.34
57232;BME280;43488;46.934;8.276;2022-08-03T10:45:24;96499.75;;;27.45;53.45
57232;BME280;43488;46.934;8.276;2022-08-03T10:47:55;96497.66;;;27.51;52.57
57232;BME280;43488;46.934;8.276;2022-08-03T10:50:24;96495.16;;;27.63;52.41
57232;BME280;43488;46.934;8.276;2022-08-03T10:52:56;96490.22;;;27.65;51.89
57232;BME280;43488;46.934;8.276;2022-08-03T10:55:35;96491.38;;;27.82;54.06
57232;BME280;43488;46.934;8.276;2022-08-03T10:58:47;96496.16;;;27.85;52.89
57232;BME280;43488;46.934;8.276;2022-08-03T11:01:52;96494.22;;;27.94;50.62
57232;BME280;43488;46.934;8.276;2022-08-03T11:04:21;96499.00;;;28.05;53.18
57232;BME280;43488;46.934;8.276;2022-08-03T11:09:49;96483.53;;;28.15;53.23
57232;BME280;43488;46.934;8.276;2022-08-03T11:12:31;96477.34;;;28.31;53.61
57232;BME280;43488;46.934;8.276;2022-08-03T11:15:04;96476.88;;;28.29;51.01
57232;BME280;43488;46.934;8.276;2022-08-03T11:17:34;96483.38;;;28.37;51.57
57232;BME280;43488;46.934;8.276;2022-08-03T11:20:09;96470.75;;;28.50;52.86
57232;BME280;43488;46.934;8.276;2022-08-03T11:22:48;96479.97;;;28.57;51.56
57232;BME280;43488;46.934;8.276;2022-08-03T11:25:18;96475.81;;;28.60;53.16
57232;BME280;43488;46.934;8.276;2022-08-03T11:27:45;96468.75;;;28.76;52.43
57232;BME280;43488;46.934;8.276;2022-08-03T11:40:45;96480.19;;;28.99;49.74
57232;BME280;43488;46.934;8.276;2022-08-03T11:46:11;96478.63;;;29.19;49.59
57232;BME280;43488;46.934;8.276;2022-08-03T11:48:49;96470.28;;;29.24;50.18
57232;BME280;43488;46.934;8.276;2022-08-03T11:51:27;96463.25;;;29.32;50.39
57232;BME280;43488;46.934;8.276;2022-08-03T11:54:00;96459.56;;;29.36;50.11
57232;BME280;43488;46.934;8.276;2022-08-03T11:56:46;96461.72;;;29.43;48.27
57232;BME280;43488;46.934;8.276;2022-08-03T11:59:13;96457.41;;;29.51;47.77
57232;BME280;43488;46.934;8.276;2022-08-03T12:01:41;96455.13;;;29.53;48.53
57232;BME280;43488;46.934;8.276;2022-08-03T12:04:09;96449.88;;;29.56;49.74
57232;BME280;43488;46.934;8.276;2022-08-03T12:06:38;96452.38;;;29.61;49.35
57232;BME280;43488;46.934;8.276;2022-08-03T12:09:22;96445.91;;;29.74;48.14
57232;BME280;43488;46.934;8.276;2022-08-03T12:11:50;96447.97;;;29.90;47.97
57232;BME280;43488;46.934;8.276;2022-08-03T12:14:20;96458.03;;;29.89;48.62
57232;BME280;43488;46.934;8.276;2022-08-03T12:16:48;96450.94;;;29.97;48.77
57232;BME280;43488;46.934;8.276;2022-08-03T12:19:15;96447.91;;;29.98;46.91
57232;BME280;43488;46.934;8.276;2022-08-03T12:21:48;96450.03;;;30.14;47.28
57232;BME280;43488;46.934;8.276;2022-08-03T12:24:16;96452.75;;;30.14;46.40
57232;BME280;43488;46.934;8.276;2022-08-03T12:26:49;96443.00;;;30.13;46.08
57232;BME280;43488;46.934;8.276;2022-08-03T12:29:21;96446.06;;;30.11;46.43
57232;BME280;43488;46.934;8.276;2022-08-03T12:31:48;96431.44;;;30.37;47.66
57232;BME280;43488;46.934;8.276;2022-08-03T12:34:16;96442.84;;;30.42;46.47
57232;BME280;43488;46.934;8.276;2022-08-03T12:36:54;96437.56;;;30.46;46.13
57232;BME280;43488;46.934;8.276;2022-08-03T12:39:26;96437.56;;;30.46;46.61
57232;BME280;43488;46.934;8.276;2022-08-03T12:41:56;96433.81;;;30.50;45.46
57232;BME280;43488;46.934;8.276;2022-08-03T12:44:33;96435.66;;;30.58;46.62
57232;BME280;43488;46.934;8.276;2022-08-03T12:47:02;96431.38;;;30.70;45.81
57232;BME280;43488;46.934;8.276;2022-08-03T12:49:48;96435.22;;;30.81;46.00
57232;BME280;43488;46.934;8.276;2022-08-03T12:52:21;96437.84;;;30.90;46.04
57232;BME280;43488;46.934;8.276;2022-08-03T12:54:57;96433.53;;;30.89;45.40
57232;BME280;43488;46.934;8.276;2022-08-03T12:57:25;96438.53;;;30.86;42.77
57232;BME280;43488;46.934;8.276;2022-08-03T13:00:14;96440.22;;;30.91;44.60
57232;BME280;43488;46.934;8.276;2022-08-03T13:02:42;96432.63;;;30.97;44.04
57232;BME280;43488;46.934;8.276;2022-08-03T13:05:14;96433.44;;;31.09;44.09
57232;BME280;43488;46.934;8.276;2022-08-03T13:07:43;96438.16;;;31.12;45.33
57232;BME280;43488;46.934;8.276;2022-08-03T13:10:30;96434.56;;;31.21;45.29
57232;BME280;43488;46.934;8.276;2022-08-03T13:12:59;96432.97;;;31.20;43.57
57232;BME280;43488;46.934;8.276;2022-08-03T13:15:29;96430.69;;;31.34;44.35
57232;BME280;43488;46.934;8.276;2022-08-03T13:17:57;96433.66;;;31.29;43.58
57232;BME280;43488;46.934;8.276;2022-08-03T13:20:25;96432.03;;;31.40;44.71
57232;BME280;43488;46.934;8.276;2022-08-03T13:22:52;96418.44;;;31.40;42.63
57232;BME280;43488;46.934;8.276;2022-08-03T13:25:19;96429.19;;;31.49;42.43
57232;BME280;43488;46.934;8.276;2022-08-03T13:27:46;96420.97;;;31.61;42.77
57232;BME280;43488;46.934;8.276;2022-08-03T13:30:14;96411.38;;;31.51;42.26
57232;BME280;43488;46.934;8.276;2022-08-03T13:32:42;96414.22;;;31.55;42.16
57232;BME280;43488;46.934;8.276;2022-08-03T13:35:09;96408.53;;;31.60;42.56
57232;BME280;43488;46.934;8.276;2022-08-03T13:37:37;96411.09;;;31.68;41.49
57232;BME280;43488;46.934;8.276;2022-08-03T13:40:07;96411.09;;;31.68;42.76
57232;BME280;43488;46.934;8.276;2022-08-03T13:42:35;96405.44;;;31.74;43.27
57232;BME280;43488;46.934;8.276;2022-08-03T13:45:04;96411.41;;;31.79;43.02
57232;BME280;43488;46.934;8.276;2022-08-03T13:47:32;96400.66;;;31.83;41.06
57232;BME280;43488;46.934;8.276;2022-08-03T13:49:59;96403.91;;;31.88;40.97